createdAt,value
2017-12-08T00:00:08.619Z,962.95
2017-12-08T00:15:04.656Z,962.76
2017-12-08T00:30:05.075Z,962.79
2017-12-08T00:45:07.897Z,962.57
2017-12-08T01:00:06.190Z,962.3
2017-12-08T01:15:05.036Z,962.46
2017-12-08T01:30:04.842Z,962.57
2017-12-08T01:45:05.531Z,962.82
2017-12-08T02:00:04.395Z,962.71
2017-12-08T02:15:04.880Z,962.6
2017-12-08T02:30:04.575Z,962.52
2017-12-08T02:45:05.018Z,962.84
2017-12-08T03:00:04.824Z,962.71
2017-12-08T03:15:04.790Z,962.71
2017-12-08T03:30:04.991Z,962.68
2017-12-08T03:45:07.675Z,962.44
2017-12-08T04:00:05.777Z,962.9
2017-12-08T04:15:04.950Z,955.8
2017-12-08T04:30:04.718Z,956.14
2017-12-08T04:45:05.441Z,956.09
2017-12-08T05:00:08.304Z,956.22
2017-12-08T05:15:05.746Z,955.88
2017-12-08T05:30:05.729Z,956.22
2017-12-08T05:45:05.596Z,956.12
2017-12-08T06:00:04.510Z,956.44
2017-12-08T06:15:05.362Z,956.44
2017-12-08T06:30:05.079Z,956.33
2017-12-08T06:45:04.990Z,956.46
2017-12-08T07:00:04.430Z,956.33
2017-12-08T07:15:04.345Z,956.49
2017-12-08T07:30:04.468Z,956.2
2017-12-08T07:45:04.875Z,955.9
2017-12-08T08:00:05.278Z,955.55
2017-12-08T08:15:04.663Z,955.37
2017-12-08T08:30:04.752Z,955.13
2017-12-08T08:45:04.607Z,962.36
2017-12-08T09:00:04.501Z,962.65
2017-12-08T09:15:05.930Z,956.73
2017-12-08T09:30:06.012Z,957.08
2017-12-08T09:45:05.470Z,956.89
2017-12-08T10:00:05.496Z,956.87
2017-12-08T10:15:05.606Z,956.3
2017-12-08T10:30:04.733Z,956.76
2017-12-08T10:45:06.190Z,956.84
2017-12-08T11:00:04.593Z,956.87
2017-12-08T11:15:08.210Z,956.28
2017-12-08T11:30:04.873Z,956.3
2017-12-08T11:45:05.374Z,956.44
2017-12-08T12:00:05.269Z,956.46
2017-12-08T12:15:04.852Z,956.33
2017-12-08T12:30:04.440Z,956.57
2017-12-08T12:45:04.344Z,956.84
2017-12-08T13:00:04.839Z,957.19
2017-12-08T13:15:05.448Z,957.13
2017-12-08T13:30:04.593Z,957.4
2017-12-08T13:45:06.139Z,957.43
2017-12-08T14:00:04.473Z,958.04
2017-12-08T14:15:05.117Z,959.41
2017-12-08T14:30:04.852Z,959.46
2017-12-08T14:45:06.216Z,959.51
2017-12-08T15:00:05.062Z,959.81
2017-12-08T15:15:15.203Z,959.54
2017-12-08T15:30:05.980Z,959.62
2017-12-08T15:45:04.876Z,959.57
2017-12-08T16:00:04.834Z,960.85
2017-12-08T16:15:06.248Z,961.6
2017-12-08T16:30:07.881Z,961.58
2017-12-08T16:45:05.773Z,961.47
2017-12-08T17:00:05.702Z,961.15
2017-12-08T17:15:05.153Z,960.96
2017-12-08T17:30:05.245Z,960.93
2017-12-08T17:45:06.177Z,961.71
2017-12-08T18:00:04.669Z,961.17
2017-12-08T18:15:04.576Z,961.5
2017-12-08T18:30:05.324Z,961.6
2017-12-08T18:45:05.969Z,961.2
2017-12-08T19:00:05.150Z,960.75
2017-12-08T19:15:07.647Z,960.69
2017-12-08T19:30:05.754Z,961.01
2017-12-08T19:45:04.808Z,961.87
2017-12-08T20:00:04.711Z,962.08
2017-12-08T20:15:04.585Z,961.95
2017-12-08T20:30:04.754Z,962.41
2017-12-08T20:45:04.624Z,962.46
2017-12-08T21:00:04.514Z,962.22
2017-12-08T21:15:08.115Z,962.11
2017-12-08T21:30:04.726Z,961.87
2017-12-08T21:45:05.183Z,961.98
2017-12-08T22:00:05.091Z,963.18
2017-12-08T22:15:05.027Z,963.1
2017-12-08T22:30:04.644Z,963.66
2017-12-08T22:45:04.533Z,963.77
2017-12-08T23:00:05.012Z,963.8
2017-12-08T23:15:04.924Z,964.47
2017-12-08T23:30:05.018Z,957.13
2017-12-08T23:45:07.907Z,957.36
